createdAt,value
2017-05-11T00:00:06.768Z,85.30
2017-05-11T00:02:35.773Z,84.10
2017-05-11T00:05:04.437Z,85.10
2017-05-11T00:07:33.465Z,85.40
2017-05-11T00:10:02.107Z,85.10
2017-05-11T00:12:31.037Z,85.10
2017-05-11T00:14:59.697Z,85.40
2017-05-11T00:17:28.711Z,85.80
2017-05-11T00:19:57.674Z,85.00
2017-05-11T00:22:26.682Z,86.30
2017-05-11T00:24:55.345Z,86.30
2017-05-11T00:27:23.641Z,86.30
2017-05-11T00:29:51.881Z,85.90
2017-05-11T00:32:20.893Z,83.00
2017-05-11T00:34:49.883Z,82.80
2017-05-11T00:37:18.545Z,84.20
2017-05-11T00:39:47.194Z,84.30
2017-05-11T00:42:16.141Z,83.40
2017-05-11T00:44:44.802Z,82.70
2017-05-11T00:47:13.457Z,82.50
2017-05-11T00:49:42.148Z,82.10
2017-05-11T00:52:10.780Z,82.20
2017-05-11T00:54:39.023Z,82.20
2017-05-11T00:57:07.678Z,82.40
2017-05-11T00:59:36.329Z,82.20
2017-05-11T01:02:04.969Z,82.30
2017-05-11T01:04:33.253Z,82.30
2017-05-11T01:07:02.269Z,82.80
2017-05-11T01:09:30.901Z,83.80
2017-05-11T01:11:59.584Z,84.70
2017-05-11T01:14:28.226Z,85.20
2017-05-11T01:16:56.870Z,84.60
2017-05-11T01:19:25.559Z,85.30
2017-05-11T01:21:54.198Z,85.50
2017-05-11T01:24:22.846Z,84.80
2017-05-11T01:26:51.718Z,84.00
2017-05-11T01:29:20.726Z,84.80
2017-05-11T01:31:49.371Z,85.80
2017-05-11T01:34:18.052Z,85.70
2017-05-11T01:36:46.688Z,86.10
2017-05-11T01:39:15.411Z,85.80
2017-05-11T01:41:44.350Z,84.90
2017-05-11T01:44:13.001Z,84.40
2017-05-11T01:46:41.651Z,85.20
2017-05-11T01:49:10.178Z,85.20
2017-05-11T01:51:39.194Z,85.20
2017-05-11T01:54:07.844Z,85.40
2017-05-11T01:56:36.534Z,85.70
2017-05-11T01:59:05.550Z,85.70
2017-05-11T02:01:33.797Z,85.70
2017-05-11T02:04:02.070Z,86.00
2017-05-11T02:06:30.322Z,86.30
2017-05-11T02:08:58.968Z,86.00
2017-05-11T02:11:27.638Z,86.00
2017-05-11T02:13:56.290Z,86.10
2017-05-11T02:16:24.938Z,86.30
2017-05-11T02:18:53.481Z,86.30
2017-05-11T02:21:22.131Z,86.90
2017-05-11T02:23:50.776Z,86.80
2017-05-11T02:26:19.450Z,86.30
2017-05-11T02:28:48.314Z,86.60
2017-05-11T02:31:17.331Z,86.50
2017-05-11T02:33:45.993Z,85.90
2017-05-11T02:36:14.640Z,85.80
2017-05-11T02:38:43.331Z,86.20
2017-05-11T02:41:12.175Z,86.00
2017-05-11T02:43:40.780Z,85.70
2017-05-11T02:46:09.397Z,86.20
2017-05-11T02:48:38.408Z,86.30
2017-05-11T02:51:07.022Z,86.40
2017-05-11T02:53:35.637Z,86.60
2017-05-11T02:56:04.652Z,86.70
2017-05-11T02:58:33.271Z,86.60
2017-05-11T03:01:01.890Z,86.80
2017-05-11T03:03:30.781Z,87.10
2017-05-11T03:05:59.393Z,87.30
2017-05-11T03:08:27.612Z,87.30
2017-05-11T03:10:56.271Z,87.10
2017-05-11T03:13:24.893Z,87.20
2017-05-11T03:15:53.504Z,87.00
2017-05-11T03:18:22.157Z,87.10
2017-05-11T03:20:50.773Z,87.20
2017-05-11T03:23:19.396Z,87.10
2017-05-11T03:25:48.050Z,86.80
2017-05-11T03:28:16.664Z,86.60
2017-05-11T03:30:45.287Z,86.60
2017-05-11T03:33:13.714Z,86.60
2017-05-11T03:35:42.332Z,86.70
2017-05-11T03:38:10.953Z,87.10
2017-05-11T03:40:39.597Z,86.90
2017-05-11T03:43:07.817Z,86.90
2017-05-11T03:45:36.435Z,87.20
2017-05-11T03:48:05.341Z,87.20
2017-05-11T03:50:33.961Z,87.00
2017-05-11T03:53:02.579Z,86.90
2017-05-11T03:55:31.217Z,87.10
2017-05-11T03:58:00.209Z,87.50
2017-05-11T04:00:29.193Z,87.40
2017-05-11T04:02:58.200Z,87.80
2017-05-11T04:05:26.829Z,87.20
2017-05-11T04:07:55.449Z,86.90
2017-05-11T04:10:25.279Z,86.70
2017-05-11T04:12:53.910Z,87.20
2017-05-11T04:15:22.533Z,87.50
2017-05-11T04:17:50.783Z,87.40
2017-05-11T04:20:19.393Z,87.00
2017-05-11T04:22:47.921Z,87.00
2017-05-11T04:25:16.647Z,86.20
2017-05-11T04:27:45.636Z,86.50
2017-05-11T04:30:14.627Z,86.40
2017-05-11T04:32:43.971Z,86.40
2017-05-11T04:35:12.594Z,86.00
2017-05-11T04:37:40.810Z,86.00
2017-05-11T04:40:09.750Z,86.20
2017-05-11T04:42:38.364Z,86.00
2017-05-11T04:45:06.988Z,85.90
2017-05-11T04:47:35.909Z,86.00
2017-05-11T04:50:04.521Z,85.30
2017-05-11T04:52:33.145Z,84.90
2017-05-11T04:55:01.875Z,85.20
2017-05-11T04:57:30.106Z,85.20
2017-05-11T05:02:31.545Z,85.30
2017-05-11T05:04:59.764Z,85.30
2017-05-11T05:07:28.282Z,85.40
2017-05-11T05:09:57.312Z,85.30
2017-05-11T05:12:25.492Z,85.30
2017-05-11T05:14:54.125Z,84.80
2017-05-11T05:17:22.766Z,84.60
2017-05-11T05:19:51.383Z,85.20
2017-05-11T05:22:19.606Z,85.20
2017-05-11T05:24:48.265Z,84.30
2017-05-11T05:27:16.892Z,84.30
2017-05-11T05:29:45.512Z,83.80
2017-05-11T05:32:14.376Z,83.80
2017-05-11T05:34:43.361Z,83.10
2017-05-11T05:37:11.985Z,83.10
2017-05-11T05:39:40.671Z,83.20
2017-05-11T05:42:09.292Z,82.90
2017-05-11T05:44:37.918Z,83.20
2017-05-11T05:47:06.481Z,83.20
2017-05-11T05:49:35.094Z,82.10
2017-05-11T05:52:03.708Z,81.80
2017-05-11T05:54:32.344Z,80.70
2017-05-11T05:57:00.557Z,80.70
2017-05-11T05:59:29.517Z,81.40
2017-05-11T06:01:58.468Z,81.20
2017-05-11T06:04:27.086Z,79.90
2017-05-11T06:06:55.698Z,79.90
2017-05-11T06:09:24.577Z,79.90
2017-05-11T06:11:53.188Z,78.50
2017-05-11T06:14:21.796Z,77.20
2017-05-11T06:16:50.437Z,77.40
2017-05-11T06:19:19.051Z,77.30
2017-05-11T06:21:47.655Z,76.10
2017-05-11T06:24:16.676Z,75.70
2017-05-11T06:26:44.900Z,75.70
2017-05-11T06:29:13.128Z,75.60
2017-05-11T06:31:41.377Z,75.40
2017-05-11T06:34:10.375Z,75.10
2017-05-11T06:36:39.027Z,74.40
2017-05-11T06:39:07.629Z,73.80
2017-05-11T06:41:37.242Z,73.40
2017-05-11T06:44:05.874Z,72.80
2017-05-11T06:46:34.531Z,72.40
2017-05-11T06:49:03.148Z,70.20
2017-05-11T06:51:31.762Z,71.60
2017-05-11T06:54:00.863Z,70.80
2017-05-11T06:56:29.864Z,71.10
2017-05-11T06:58:58.480Z,70.30
2017-05-11T07:01:26.726Z,70.30
2017-05-11T07:03:55.342Z,70.00
2017-05-11T07:06:23.957Z,67.80
2017-05-11T07:08:52.212Z,67.80
2017-05-11T07:11:20.820Z,67.50
2017-05-11T07:13:49.808Z,66.60
2017-05-11T07:16:19.107Z,66.00
2017-05-11T07:18:47.701Z,66.30
2017-05-11T07:21:16.321Z,67.50
2017-05-11T07:23:44.989Z,66.90
2017-05-11T07:26:13.205Z,66.90
2017-05-11T07:28:41.820Z,65.50
2017-05-11T07:31:10.961Z,66.60
2017-05-11T07:33:39.576Z,65.00
2017-05-11T07:36:07.816Z,65.00
2017-05-11T07:38:36.706Z,64.90
2017-05-11T07:41:05.309Z,64.50
2017-05-11T07:43:33.938Z,65.30
2017-05-11T07:46:02.581Z,65.00
2017-05-11T07:48:31.200Z,63.10
2017-05-11T07:51:00.133Z,63.10
2017-05-11T07:53:28.957Z,62.40
2017-05-11T07:55:57.186Z,62.40
2017-05-11T07:58:25.817Z,61.40
2017-05-11T08:00:54.463Z,62.60
2017-05-11T08:03:23.086Z,60.10
2017-05-11T08:05:52.080Z,60.10
2017-05-11T08:08:20.945Z,60.10
2017-05-11T08:10:49.560Z,59.20
2017-05-11T08:13:18.188Z,59.80
2017-05-11T08:15:47.093Z,59.10
2017-05-11T08:18:15.711Z,59.40
2017-05-11T08:20:44.617Z,60.30
2017-05-11T08:23:13.571Z,60.40
2017-05-11T08:25:42.552Z,59.00
2017-05-11T08:28:11.169Z,59.00
2017-05-11T08:30:39.423Z,59.00
2017-05-11T08:33:08.410Z,56.90
2017-05-11T08:35:37.389Z,57.10
2017-05-11T08:38:06.022Z,56.70
2017-05-11T08:40:34.651Z,57.20
2017-05-11T08:43:03.272Z,57.00
2017-05-11T08:45:31.925Z,57.30
2017-05-11T08:48:00.554Z,56.10
2017-05-11T08:50:29.174Z,57.40
2017-05-11T08:52:57.970Z,55.80
2017-05-11T08:55:26.616Z,55.70
2017-05-11T08:57:54.825Z,55.70
2017-05-11T09:00:23.074Z,56.70
2017-05-11T09:02:52.198Z,55.30
2017-05-11T09:05:20.809Z,55.10
2017-05-11T09:07:49.583Z,55.10
2017-05-11T09:10:18.556Z,55.00
2017-05-11T09:12:47.183Z,54.80
2017-05-11T09:15:15.843Z,54.50
2017-05-11T09:17:45.138Z,53.80
2017-05-11T09:20:14.131Z,54.90
2017-05-11T09:22:42.965Z,53.80
2017-05-11T09:25:11.572Z,53.80
2017-05-11T09:27:39.800Z,53.80
2017-05-11T09:30:08.657Z,53.70
2017-05-11T09:32:37.647Z,54.00
2017-05-11T09:35:06.643Z,53.00
2017-05-11T09:37:35.737Z,53.50
2017-05-11T09:40:03.964Z,53.50
2017-05-11T09:42:32.574Z,53.70
2017-05-11T09:45:01.200Z,52.90
2017-05-11T09:47:29.426Z,52.90
2017-05-11T09:49:58.051Z,51.90
2017-05-11T09:52:26.673Z,52.80
2017-05-11T09:54:55.286Z,52.50
2017-05-11T09:57:24.277Z,53.20
2017-05-11T09:59:53.318Z,51.50
2017-05-11T10:02:21.927Z,53.00
2017-05-11T10:04:50.541Z,52.10
2017-05-11T10:07:19.199Z,52.10
2017-05-11T10:09:47.809Z,50.90
2017-05-11T10:12:16.789Z,51.00
2017-05-11T10:14:45.788Z,49.90
2017-05-11T10:17:14.396Z,49.60
2017-05-11T10:19:43.672Z,49.40
2017-05-11T10:22:12.468Z,49.00
2017-05-11T10:24:47.863Z,50.40
2017-05-11T10:36:10.156Z,49.00
2017-05-11T10:38:38.794Z,47.70
2017-05-11T10:41:07.430Z,47.60
2017-05-11T10:43:36.103Z,48.70
2017-05-11T10:46:04.734Z,48.70
2017-05-11T10:48:33.373Z,48.30
2017-05-11T10:51:02.602Z,45.40
2017-05-11T10:53:31.620Z,46.40
2017-05-11T10:56:00.252Z,46.50
2017-05-11T10:58:28.932Z,46.70
2017-05-11T11:00:57.584Z,46.20
2017-05-11T11:03:26.220Z,44.90
2017-05-11T11:05:55.275Z,43.80
2017-05-11T11:08:23.920Z,44.20
2017-05-11T11:10:52.571Z,43.90
2017-05-11T11:13:21.190Z,43.90
2017-05-11T11:15:49.833Z,45.50
2017-05-11T11:18:18.477Z,45.20
2017-05-11T11:20:47.010Z,45.20
2017-05-11T11:23:16.041Z,43.30
2017-05-11T11:25:44.673Z,42.50
2017-05-11T11:28:13.936Z,42.30
2017-05-11T11:30:42.573Z,42.30
2017-05-11T11:33:11.577Z,41.80
2017-05-11T11:35:40.328Z,41.60
2017-05-11T11:38:08.966Z,40.30
2017-05-11T11:40:37.220Z,40.30
2017-05-11T11:43:06.098Z,40.00
2017-05-11T11:45:34.735Z,40.90
2017-05-11T11:48:03.375Z,41.20
2017-05-11T11:50:33.057Z,41.00
2017-05-11T11:53:02.061Z,40.20
2017-05-11T11:55:30.706Z,41.30
2017-05-11T11:58:00.133Z,40.80
2017-05-11T12:00:28.776Z,39.10
2017-05-11T12:02:57.417Z,38.20
2017-05-11T12:05:26.080Z,37.60
2017-05-11T12:07:54.321Z,37.60
2017-05-11T12:10:22.954Z,37.80
2017-05-11T12:12:51.628Z,38.30
2017-05-11T12:15:20.648Z,38.40
2017-05-11T12:17:49.298Z,38.00
2017-05-11T12:20:17.960Z,39.30
2017-05-11T12:22:46.595Z,37.70
2017-05-11T12:25:14.834Z,37.70
2017-05-11T12:27:43.913Z,38.70
2017-05-11T12:30:12.566Z,36.40
2017-05-11T12:32:41.204Z,36.50
2017-05-11T12:35:09.494Z,36.50
2017-05-11T12:37:38.126Z,36.90
2017-05-11T12:40:06.781Z,36.00
2017-05-11T12:42:35.534Z,36.00
2017-05-11T12:45:03.773Z,36.00
2017-05-11T12:47:32.410Z,36.60
2017-05-11T12:50:01.078Z,36.00
2017-05-11T12:52:29.321Z,36.00
2017-05-11T12:54:57.976Z,33.90
2017-05-11T12:57:27.017Z,33.60
2017-05-11T12:59:55.262Z,33.70
2017-05-11T13:02:23.902Z,34.90
2017-05-11T13:04:52.784Z,35.20
2017-05-11T13:07:21.435Z,36.10
2017-05-11T13:09:50.449Z,36.40
2017-05-11T13:12:19.127Z,36.70
2017-05-11T13:14:47.384Z,36.70
2017-05-11T13:17:15.618Z,34.80
2017-05-11T13:19:44.285Z,34.40
2017-05-11T13:22:12.937Z,34.60
2017-05-11T13:24:41.943Z,33.90
2017-05-11T13:27:10.833Z,34.10
2017-05-11T13:29:39.473Z,33.70
2017-05-11T13:32:08.119Z,34.00
2017-05-11T13:34:36.789Z,35.40
2017-05-11T13:37:05.431Z,35.50
2017-05-11T13:39:34.070Z,35.40
2017-05-11T13:42:02.739Z,34.50
2017-05-11T13:44:30.974Z,34.50
2017-05-11T13:46:59.619Z,33.90
2017-05-11T13:49:28.459Z,33.30
2017-05-11T13:51:57.483Z,33.60
2017-05-11T13:54:25.717Z,33.60
2017-05-11T13:56:54.761Z,35.20
2017-05-11T13:59:23.485Z,35.20
2017-05-11T14:01:52.111Z,33.70
2017-05-11T14:04:20.784Z,35.00
2017-05-11T14:06:49.433Z,33.90
2017-05-11T14:09:18.078Z,32.70
2017-05-11T14:11:47.494Z,32.30
2017-05-11T14:14:16.130Z,33.30
2017-05-11T14:16:44.382Z,33.30
2017-05-11T14:19:13.437Z,34.30
2017-05-11T14:21:42.088Z,36.50
2017-05-11T14:24:10.330Z,36.50
2017-05-11T14:26:39.385Z,35.00
2017-05-11T14:29:08.020Z,35.40
2017-05-11T14:31:36.269Z,35.40
2017-05-11T14:34:05.017Z,34.40
2017-05-11T14:36:33.676Z,35.20
2017-05-11T14:39:02.329Z,38.20
2017-05-11T14:41:31.344Z,37.40
2017-05-11T14:43:59.998Z,38.70
2017-05-11T14:46:28.640Z,37.50
2017-05-11T14:48:57.329Z,38.90
2017-05-11T14:51:25.972Z,39.60
2017-05-11T14:53:54.620Z,39.40
2017-05-11T14:56:23.246Z,39.40
2017-05-11T14:58:51.895Z,42.00
2017-05-11T15:01:20.539Z,41.20
2017-05-11T15:03:49.217Z,41.10
2017-05-11T15:06:17.872Z,42.00
2017-05-11T15:08:47.653Z,42.20
2017-05-11T15:11:16.312Z,43.40
2017-05-11T15:13:45.199Z,42.90
2017-05-11T15:16:13.857Z,43.30
2017-05-11T15:18:42.832Z,44.30
2017-05-11T15:21:11.483Z,43.80
2017-05-11T15:23:39.730Z,43.80
2017-05-11T15:26:09.773Z,44.10
2017-05-11T15:28:38.352Z,44.10
2017-05-11T15:31:07.542Z,44.50
2017-05-11T15:33:36.209Z,44.60
2017-05-11T15:36:04.868Z,44.30
2017-05-11T15:38:33.523Z,44.90
2017-05-11T15:41:01.792Z,44.90
2017-05-11T15:43:31.937Z,44.40
2017-05-11T15:46:00.185Z,44.30
2017-05-11T15:48:29.607Z,44.70
2017-05-11T15:50:58.262Z,45.10
2017-05-11T15:53:27.285Z,44.80
2017-05-11T15:55:55.982Z,44.60
2017-05-11T15:58:24.624Z,44.90
2017-05-11T16:00:53.643Z,45.80
2017-05-11T16:03:22.115Z,45.80
2017-05-11T16:05:50.759Z,46.00
2017-05-11T16:08:19.015Z,46.00
2017-05-11T16:10:47.689Z,45.60
2017-05-11T16:13:15.946Z,45.60
2017-05-11T16:15:44.200Z,45.70
2017-05-11T16:18:12.877Z,46.50
2017-05-11T16:20:41.526Z,46.50
2017-05-11T16:23:10.175Z,46.00
2017-05-11T16:25:39.260Z,46.10
2017-05-11T16:28:07.915Z,46.00
2017-05-11T16:30:36.937Z,46.50
2017-05-11T16:33:05.628Z,45.70
2017-05-11T16:35:34.278Z,46.50
2017-05-11T16:38:03.299Z,46.20
2017-05-11T16:40:32.672Z,46.70
2017-05-11T16:43:01.325Z,46.70
2017-05-11T16:45:29.974Z,47.30
2017-05-11T16:47:58.252Z,47.30
2017-05-11T16:50:26.900Z,56.20
2017-05-11T16:52:55.153Z,56.20
2017-05-11T16:55:24.713Z,57.10
2017-05-11T16:57:53.368Z,57.90
2017-05-11T17:00:22.033Z,58.50
2017-05-11T17:02:50.632Z,58.50
2017-05-11T17:05:19.273Z,59.20
2017-05-11T17:07:47.936Z,59.40
2017-05-11T17:10:16.785Z,59.30
2017-05-11T17:12:45.716Z,59.50
2017-05-11T17:15:14.361Z,59.90
2017-05-11T17:17:43.741Z,60.30
2017-05-11T17:20:12.755Z,60.50
2017-05-11T17:22:41.411Z,61.10
2017-05-11T17:25:10.535Z,61.10
2017-05-11T17:27:39.190Z,61.50
2017-05-11T17:30:08.209Z,61.60
2017-05-11T17:32:36.905Z,61.90
2017-05-11T17:35:05.147Z,61.90
2017-05-11T17:37:33.807Z,62.40
2017-05-11T17:40:02.484Z,62.70
2017-05-11T17:42:31.358Z,62.90
2017-05-11T17:44:59.989Z,63.00
2017-05-11T17:47:29.835Z,63.50
2017-05-11T17:49:58.092Z,63.50
2017-05-11T17:52:26.890Z,63.90
2017-05-11T17:54:55.832Z,63.80
2017-05-11T17:57:25.845Z,63.90
2017-05-11T17:59:54.497Z,63.70
2017-05-11T18:02:25.377Z,64.30
2017-05-11T18:04:54.402Z,64.70
2017-05-11T18:07:23.089Z,64.80
2017-05-11T18:09:51.344Z,64.80
2017-05-11T18:12:19.986Z,65.30
2017-05-11T18:14:49.337Z,65.30
2017-05-11T18:17:17.976Z,66.00
2017-05-11T18:19:47.001Z,65.80
2017-05-11T18:22:15.314Z,65.80
2017-05-11T18:24:43.967Z,66.70
2017-05-11T18:27:12.624Z,66.80
2017-05-11T18:29:42.617Z,66.80
2017-05-11T18:32:11.261Z,67.20
2017-05-11T18:34:39.528Z,67.20
2017-05-11T18:37:08.395Z,68.00
2017-05-11T18:39:37.062Z,68.30
2017-05-11T18:42:06.700Z,68.50
2017-05-11T18:44:35.374Z,68.70
2017-05-11T18:47:03.630Z,68.70
2017-05-11T18:49:32.292Z,68.60
2017-05-11T18:52:00.982Z,69.00
2017-05-11T18:54:29.941Z,69.30
2017-05-11T18:56:59.707Z,69.40
2017-05-11T18:59:28.264Z,69.40
2017-05-11T19:01:56.925Z,70.30
2017-05-11T19:04:26.486Z,70.20
2017-05-11T19:06:55.632Z,70.60
2017-05-11T19:09:24.278Z,71.30
2017-05-11T19:11:52.942Z,71.60
2017-05-11T19:14:22.298Z,71.40
2017-05-11T19:16:50.547Z,71.40
2017-05-11T19:19:19.807Z,72.30
2017-05-11T19:21:49.722Z,71.90
2017-05-11T19:24:18.425Z,72.10
2017-05-11T19:26:46.976Z,72.10
2017-05-11T19:29:16.134Z,72.40
2017-05-11T19:31:45.681Z,72.80
2017-05-11T19:34:15.215Z,73.10
2017-05-11T19:36:43.991Z,73.10
2017-05-11T19:39:12.652Z,73.40
2017-05-11T19:41:40.901Z,73.40
2017-05-11T19:44:09.603Z,73.50
2017-05-11T19:46:38.636Z,73.10
2017-05-11T19:49:08.619Z,73.50
2017-05-11T19:51:37.656Z,74.00
2017-05-11T19:54:06.304Z,73.70
2017-05-11T19:56:34.975Z,73.80
2017-05-11T19:59:03.255Z,73.80
2017-05-11T20:01:31.919Z,73.90
2017-05-11T20:04:00.945Z,74.40
2017-05-11T20:06:29.636Z,74.20
2017-05-11T20:08:58.293Z,74.30
2017-05-11T20:11:27.317Z,74.40
2017-05-11T20:13:56.161Z,74.40
2017-05-11T20:16:25.514Z,74.60
2017-05-11T20:18:54.162Z,74.40
2017-05-11T20:21:22.704Z,74.40
2017-05-11T20:23:51.573Z,74.70
2017-05-11T20:26:21.256Z,75.10
2017-05-11T20:28:49.936Z,75.50
2017-05-11T20:31:18.593Z,75.20
2017-05-11T20:33:46.850Z,75.20
2017-05-11T20:36:15.777Z,74.80
2017-05-11T20:38:44.433Z,75.70
2017-05-11T20:41:12.692Z,75.70
2017-05-11T20:43:41.381Z,75.30
2017-05-11T20:46:10.042Z,75.50
2017-05-11T20:48:39.184Z,76.00
2017-05-11T20:51:08.422Z,75.60
2017-05-11T20:53:37.076Z,75.60
2017-05-11T20:56:05.743Z,75.60
2017-05-11T20:58:34.746Z,75.80
2017-05-11T21:01:03.384Z,76.20
2017-05-11T21:03:32.139Z,76.30
2017-05-11T21:06:00.777Z,75.80
2017-05-11T21:08:29.792Z,75.60
2017-05-11T21:10:58.477Z,75.90
2017-05-11T21:13:27.734Z,76.10
2017-05-11T21:15:56.370Z,75.80
2017-05-11T21:18:25.152Z,75.60
2017-05-11T21:20:53.811Z,75.60
2017-05-11T21:23:22.479Z,75.70
2017-05-11T21:25:51.226Z,75.40
2017-05-11T21:28:19.903Z,75.60
2017-05-11T21:30:48.541Z,75.50
2017-05-11T21:33:16.826Z,75.50
2017-05-11T21:35:45.463Z,75.50
2017-05-11T21:38:14.101Z,75.90
2017-05-11T21:40:42.374Z,75.90
2017-05-11T21:43:10.902Z,75.70
2017-05-11T21:45:39.533Z,76.00
2017-05-11T21:48:08.195Z,76.30
2017-05-11T21:50:37.210Z,76.00
2017-05-11T21:53:05.863Z,76.00
2017-05-11T21:55:35.177Z,75.90
2017-05-11T21:58:04.186Z,75.90
2017-05-11T22:00:32.842Z,76.10
2017-05-11T22:03:01.734Z,76.60
2017-05-11T22:05:30.753Z,76.00
2017-05-11T22:07:59.394Z,76.10
2017-05-11T22:10:28.069Z,75.90
2017-05-11T22:12:56.330Z,75.90
2017-05-11T22:15:24.988Z,76.20
2017-05-11T22:17:53.659Z,76.40
2017-05-11T22:20:22.319Z,76.50
2017-05-11T22:22:51.342Z,76.40
2017-05-11T22:25:19.607Z,76.40
2017-05-11T22:27:47.865Z,76.50
2017-05-11T22:30:16.873Z,76.60
2017-05-11T22:32:45.553Z,76.20
2017-05-11T22:35:13.812Z,76.20
2017-05-11T22:37:42.059Z,76.00
2017-05-11T22:40:10.890Z,76.20
2017-05-11T22:42:39.885Z,76.20
2017-05-11T22:45:08.526Z,76.10
2017-05-11T22:47:37.854Z,76.10
2017-05-11T22:50:06.501Z,75.90
2017-05-11T22:52:35.137Z,76.10
2017-05-11T22:55:03.437Z,76.10
2017-05-11T22:57:32.073Z,76.50
2017-05-11T23:00:00.714Z,76.40
2017-05-11T23:02:29.101Z,76.40
2017-05-11T23:04:57.348Z,76.20
2017-05-11T23:07:25.990Z,76.40
2017-05-11T23:09:54.747Z,76.20
2017-05-11T23:12:23.388Z,76.80
2017-05-11T23:14:52.054Z,76.70
2017-05-11T23:17:20.719Z,76.50
2017-05-11T23:19:48.984Z,76.50
2017-05-11T23:22:17.995Z,76.90
2017-05-11T23:24:46.754Z,76.70
2017-05-11T23:27:15.762Z,76.60
2017-05-11T23:29:44.786Z,76.70
2017-05-11T23:32:13.642Z,76.60
2017-05-11T23:34:42.285Z,77.00
2017-05-11T23:37:10.916Z,77.10
2017-05-11T23:39:39.597Z,76.60
2017-05-11T23:42:08.233Z,77.10
2017-05-11T23:44:36.877Z,76.90
2017-05-11T23:47:05.546Z,77.10
2017-05-11T23:49:34.208Z,77.30
2017-05-11T23:52:03.216Z,78.00
2017-05-11T23:54:32.507Z,78.00
2017-05-11T23:57:01.519Z,78.00
2017-05-11T23:59:30.161Z,78.20
